createdAt,value
2022-12-20T00:01:27.596Z,34.20
2022-12-20T00:03:56.680Z,32.37
2022-12-20T00:06:25.091Z,34.43
2022-12-20T00:08:57.584Z,31.87
2022-12-20T00:11:25.303Z,32.37
2022-12-20T00:13:52.408Z,33.23
2022-12-20T00:16:29.873Z,33.63
2022-12-20T00:19:00.127Z,31.87
2022-12-20T00:21:28.257Z,33.47
2022-12-20T00:23:55.541Z,31.73
2022-12-20T00:26:25.749Z,33.83
2022-12-20T00:28:53.940Z,35.70
2022-12-20T00:31:22.879Z,32.17
2022-12-20T00:33:51.491Z,31.97
2022-12-20T00:36:19.683Z,33.73
2022-12-20T00:38:52.087Z,35.90
2022-12-20T00:41:24.215Z,34.87
2022-12-20T00:43:52.590Z,36.40
2022-12-20T00:46:21.001Z,35.37
2022-12-20T00:48:48.132Z,34.07
2022-12-20T00:51:23.024Z,36.10
2022-12-20T00:53:50.374Z,33.87
2022-12-20T00:56:17.733Z,34.27
2022-12-20T00:58:45.605Z,35.17
2022-12-20T01:01:19.467Z,34.53
2022-12-20T01:03:49.142Z,34.73
2022-12-20T01:06:16.669Z,35.90
2022-12-20T01:08:43.959Z,35.27
2022-12-20T01:11:24.723Z,35.97
2022-12-20T01:13:56.115Z,35.93
2022-12-20T01:16:26.954Z,33.97
2022-12-20T01:18:54.581Z,35.40
2022-12-20T01:21:24.006Z,33.93
2022-12-20T01:23:51.394Z,37.43
2022-12-20T01:26:22.282Z,38.57
2022-12-20T01:28:54.186Z,35.70
2022-12-20T01:31:21.607Z,36.13
2022-12-20T01:33:49.961Z,33.53
2022-12-20T01:36:29.412Z,37.53
2022-12-20T01:39:21.147Z,35.03
2022-12-20T01:41:48.279Z,33.37
2022-12-20T01:44:18.540Z,31.70
2022-12-20T01:46:47.791Z,35.10
2022-12-20T01:49:42.625Z,31.30
2022-12-20T01:52:20.326Z,30.30
2022-12-20T01:55:01.454Z,31.70
2022-12-20T01:57:36.304Z,32.70
2022-12-20T02:00:04.886Z,34.83
2022-12-20T02:02:42.334Z,33.43
2022-12-20T02:05:10.730Z,33.57
2022-12-20T02:07:38.591Z,34.40
2022-12-20T02:10:07.740Z,34.43
2022-12-20T02:12:43.725Z,34.67
2022-12-20T02:15:32.485Z,31.43
2022-12-20T02:18:25.514Z,33.00
2022-12-20T02:21:18.800Z,31.90
2022-12-20T02:24:04.013Z,32.17
2022-12-20T02:27:11.491Z,31.87
2022-12-20T02:30:05.319Z,30.80
2022-12-20T02:32:54.642Z,32.37
2022-12-20T02:35:25.224Z,32.67
2022-12-20T02:37:58.406Z,33.27
2022-12-20T02:40:30.423Z,32.47
2022-12-20T02:43:01.112Z,36.93
2022-12-20T02:45:33.912Z,32.87
2022-12-20T02:48:06.189Z,32.33
2022-12-20T02:50:43.625Z,31.43
2022-12-20T02:53:11.191Z,32.77
2022-12-20T02:56:00.483Z,34.63
2022-12-20T02:58:43.587Z,36.47
2022-12-20T03:01:36.296Z,34.43
2022-12-20T03:04:04.977Z,36.07
2022-12-20T03:06:32.055Z,35.10
2022-12-20T03:08:59.067Z,34.83
2022-12-20T03:11:28.683Z,35.63
2022-12-20T03:13:56.274Z,37.57
2022-12-20T03:16:23.432Z,37.10
2022-12-20T03:18:50.534Z,33.57
2022-12-20T03:21:17.517Z,34.10
2022-12-20T03:23:44.504Z,34.40
2022-12-20T03:26:11.523Z,34.27
2022-12-20T03:28:43.634Z,37.87
2022-12-20T03:31:14.271Z,34.73
2022-12-20T03:33:49.744Z,36.00
2022-12-20T03:36:17.181Z,35.33
2022-12-20T03:38:44.281Z,37.30
2022-12-20T03:41:11.284Z,34.73
2022-12-20T03:43:38.589Z,34.80
2022-12-20T03:46:06.153Z,34.07
2022-12-20T03:48:38.042Z,33.73
2022-12-20T03:51:05.520Z,35.03
2022-12-20T03:53:33.513Z,34.73
2022-12-20T03:56:00.644Z,35.10
2022-12-20T03:58:27.689Z,36.77
2022-12-20T04:00:56.585Z,34.70
2022-12-20T04:03:49.839Z,34.97
2022-12-20T04:06:18.227Z,36.07
2022-12-20T04:08:45.804Z,36.60
2022-12-20T04:11:18.612Z,36.53
2022-12-20T04:13:56.106Z,35.57
2022-12-20T04:16:27.190Z,34.17
2022-12-20T04:18:55.752Z,34.83
2022-12-20T04:21:34.400Z,35.77
2022-12-20T04:24:03.115Z,35.87
2022-12-20T04:26:43.325Z,36.17
2022-12-20T04:29:11.796Z,35.90
2022-12-20T04:31:40.897Z,36.07
2022-12-20T04:34:07.978Z,36.20
2022-12-20T04:36:35.405Z,37.90
2022-12-20T04:39:05.785Z,35.83
2022-12-20T04:41:43.201Z,36.27
2022-12-20T04:44:13.540Z,34.87
2022-12-20T04:46:40.633Z,32.87
2022-12-20T04:49:12.427Z,35.07
2022-12-20T04:51:42.553Z,34.63
2022-12-20T04:54:11.390Z,34.00
2022-12-20T04:56:46.769Z,33.73
2022-12-20T04:59:19.493Z,34.43
2022-12-20T05:01:49.982Z,34.90
2022-12-20T05:04:36.797Z,33.03
2022-12-20T05:07:04.709Z,32.83
2022-12-20T05:09:32.517Z,35.63
2022-12-20T05:12:00.222Z,35.37
2022-12-20T05:14:27.238Z,34.37
2022-12-20T05:16:54.405Z,38.17
2022-12-20T05:19:21.431Z,35.10
2022-12-20T05:22:07.032Z,35.47
2022-12-20T05:24:55.451Z,33.40
2022-12-20T05:27:32.095Z,34.50
2022-12-20T05:29:59.469Z,34.77
2022-12-20T05:32:28.305Z,31.43
2022-12-20T05:34:55.680Z,32.70
2022-12-20T05:37:22.731Z,36.77
2022-12-20T05:39:50.496Z,35.70
2022-12-20T05:42:21.402Z,33.03
2022-12-20T05:44:52.152Z,31.53
2022-12-20T05:47:20.971Z,34.57
2022-12-20T05:49:53.217Z,38.70
2022-12-20T05:52:20.263Z,33.17
2022-12-20T05:54:47.560Z,31.07
2022-12-20T05:57:17.811Z,34.53
2022-12-20T05:59:46.330Z,33.80
2022-12-20T06:02:16.978Z,31.93
2022-12-20T06:04:45.649Z,32.73
2022-12-20T06:07:17.058Z,29.83
2022-12-20T06:09:47.387Z,35.17
2022-12-20T06:12:17.628Z,31.90
2022-12-20T06:14:46.312Z,33.20
2022-12-20T06:17:13.885Z,31.07
2022-12-20T06:19:43.726Z,33.73
2022-12-20T06:22:13.846Z,34.30
2022-12-20T06:24:48.201Z,34.73
2022-12-20T06:27:18.805Z,35.13
2022-12-20T06:29:54.284Z,34.50
2022-12-20T06:32:24.446Z,34.43
2022-12-20T06:34:52.251Z,32.50
2022-12-20T06:37:19.578Z,33.47
2022-12-20T06:39:46.636Z,33.13
2022-12-20T06:42:14.726Z,34.37
2022-12-20T06:44:43.968Z,35.10
2022-12-20T06:47:11.036Z,36.53
2022-12-20T06:49:38.646Z,32.77
2022-12-20T06:52:12.363Z,35.30
2022-12-20T06:54:46.096Z,32.70
2022-12-20T06:57:13.884Z,34.40
2022-12-20T06:59:43.840Z,31.03
2022-12-20T07:02:12.250Z,32.77
2022-12-20T07:04:39.473Z,33.47
2022-12-20T07:07:06.995Z,33.60
2022-12-20T07:09:34.462Z,34.40
2022-12-20T07:12:01.521Z,34.03
2022-12-20T07:14:28.655Z,32.97
2022-12-20T07:16:55.755Z,35.90
2022-12-20T07:19:22.846Z,34.30
2022-12-20T07:21:49.856Z,34.50
2022-12-20T07:24:16.923Z,32.90
2022-12-20T07:26:46.667Z,32.47
2022-12-20T07:29:15.900Z,34.83
2022-12-20T07:31:43.831Z,33.33
2022-12-20T07:34:11.108Z,34.77
2022-12-20T07:36:38.464Z,35.17
2022-12-20T07:39:05.674Z,36.00
2022-12-20T07:41:32.753Z,37.37
2022-12-20T07:44:00.138Z,39.43
2022-12-20T07:46:27.753Z,38.93
2022-12-20T07:48:55.609Z,37.37
2022-12-20T07:51:27.255Z,38.07
2022-12-20T07:54:05.112Z,37.20
2022-12-20T07:56:40.786Z,37.30
2022-12-20T07:59:11.563Z,40.47
2022-12-20T08:01:39.507Z,39.87
2022-12-20T08:04:14.365Z,39.63
2022-12-20T08:06:42.614Z,39.53
2022-12-20T08:09:15.222Z,38.80
2022-12-20T08:11:45.108Z,36.90
2022-12-20T08:14:12.949Z,37.10
2022-12-20T08:16:39.995Z,38.23
2022-12-20T08:19:07.136Z,40.20
2022-12-20T08:21:34.165Z,38.03
2022-12-20T08:24:01.229Z,37.40
2022-12-20T08:26:28.457Z,38.67
2022-12-20T08:28:56.519Z,38.17
2022-12-20T08:31:23.791Z,38.63
2022-12-20T08:33:55.362Z,39.50
2022-12-20T08:36:22.516Z,38.17
2022-12-20T08:38:49.660Z,39.73
2022-12-20T08:41:16.821Z,38.93
2022-12-20T08:43:44.192Z,39.00
2022-12-20T08:46:14.952Z,39.43
2022-12-20T08:48:42.084Z,41.40
2022-12-20T08:51:11.157Z,39.30
2022-12-20T08:53:39.141Z,38.70
2022-12-20T08:56:17.519Z,39.40
2022-12-20T08:58:45.130Z,39.40
2022-12-20T09:01:15.103Z,41.63
2022-12-20T09:03:42.477Z,40.77
2022-12-20T09:06:12.034Z,41.47
2022-12-20T09:08:40.231Z,41.27
2022-12-20T09:11:12.282Z,39.57
2022-12-20T09:13:44.029Z,43.47
2022-12-20T09:16:16.058Z,42.53
2022-12-20T09:18:43.733Z,43.87
2022-12-20T09:21:11.881Z,40.43
2022-12-20T09:23:39.314Z,42.63
2022-12-20T09:26:10.614Z,45.43
2022-12-20T09:28:37.591Z,44.20
2022-12-20T09:31:07.657Z,44.37
2022-12-20T09:33:35.730Z,45.77
2022-12-20T09:36:03.579Z,43.80
2022-12-20T09:38:32.231Z,42.37
2022-12-20T09:41:05.421Z,43.23
2022-12-20T09:43:34.020Z,43.20
2022-12-20T09:46:03.385Z,43.33
2022-12-20T09:48:37.348Z,42.00
2022-12-20T09:51:10.416Z,43.60
2022-12-20T09:54:12.647Z,46.07
2022-12-20T09:57:07.939Z,43.53
2022-12-20T09:59:41.268Z,45.70
2022-12-20T10:02:44.473Z,46.27
2022-12-20T10:05:02.789Z,47.20
2022-12-20T10:07:32.912Z,46.10
2022-12-20T10:10:18.067Z,46.40
2022-12-20T10:13:26.041Z,48.93
2022-12-20T10:16:00.329Z,47.17
2022-12-20T10:18:46.645Z,46.60
2022-12-20T10:21:19.746Z,48.37
2022-12-20T10:24:01.674Z,49.80
2022-12-20T10:26:30.146Z,46.40
2022-12-20T10:28:57.183Z,45.63
2022-12-20T10:31:25.482Z,48.27
2022-12-20T10:33:52.471Z,47.00
2022-12-20T10:36:22.670Z,45.47
2022-12-20T10:38:52.556Z,48.80
2022-12-20T10:41:48.239Z,48.63
2022-12-20T10:44:15.533Z,50.23
2022-12-20T10:46:55.072Z,45.80
2022-12-20T10:49:31.456Z,47.70
2022-12-20T10:52:09.004Z,47.57
2022-12-20T10:54:38.487Z,45.43
2022-12-20T10:57:22.229Z,46.53
2022-12-20T10:59:51.324Z,45.63
2022-12-20T11:02:24.197Z,44.63
2022-12-20T11:05:24.089Z,43.03
2022-12-20T11:10:41.924Z,45.03
2022-12-20T11:13:35.532Z,45.70
2022-12-20T11:16:02.606Z,43.57
2022-12-20T11:18:38.339Z,44.10
2022-12-20T11:21:18.510Z,43.77
2022-12-20T11:24:11.000Z,43.23
2022-12-20T11:27:25.520Z,42.83
2022-12-20T11:29:56.093Z,42.87
2022-12-20T11:32:26.777Z,46.83
2022-12-20T11:35:08.352Z,45.77
2022-12-20T11:38:14.671Z,46.07
2022-12-20T11:41:13.918Z,46.13
2022-12-20T11:44:23.216Z,43.90
2022-12-20T11:46:46.103Z,43.33
2022-12-20T11:49:21.987Z,46.10
2022-12-20T11:52:10.522Z,47.17
2022-12-20T11:54:50.156Z,44.57
2022-12-20T11:57:24.392Z,46.53
2022-12-20T11:59:57.723Z,47.23
2022-12-20T12:02:58.822Z,43.50
2022-12-20T12:05:41.050Z,45.27
2022-12-20T12:08:18.495Z,47.40
2022-12-20T12:10:58.038Z,47.67
2022-12-20T12:13:28.660Z,46.57
2022-12-20T12:16:20.041Z,49.40
2022-12-20T12:18:47.610Z,46.63
2022-12-20T12:21:22.849Z,46.77
2022-12-20T12:24:02.035Z,48.73
2022-12-20T12:26:30.172Z,49.23
2022-12-20T12:29:01.678Z,49.70
2022-12-20T12:32:06.240Z,47.50
2022-12-20T12:34:58.466Z,47.70
2022-12-20T12:37:40.560Z,46.40
2022-12-20T12:40:26.012Z,47.93
2022-12-20T12:43:04.951Z,49.20
2022-12-20T12:45:57.476Z,47.77
2022-12-20T12:48:49.911Z,47.17
2022-12-20T12:51:31.971Z,46.93
2022-12-20T12:54:04.960Z,46.97
2022-12-20T12:56:44.444Z,48.60
2022-12-20T12:59:33.497Z,47.83
2022-12-20T13:02:06.319Z,47.30
2022-12-20T13:05:10.589Z,46.63
2022-12-20T13:07:37.559Z,46.80
2022-12-20T13:10:10.393Z,46.87
2022-12-20T13:12:37.751Z,49.37
2022-12-20T13:15:20.110Z,48.47
2022-12-20T13:17:59.692Z,49.53
2022-12-20T13:20:34.999Z,46.83
2022-12-20T13:23:11.904Z,48.43
2022-12-20T13:25:40.464Z,49.17
2022-12-20T13:28:19.645Z,49.10
2022-12-20T13:30:47.965Z,50.00
2022-12-20T13:33:39.270Z,48.80
2022-12-20T13:36:12.099Z,49.27
2022-12-20T13:38:48.208Z,50.03
2022-12-20T13:41:18.152Z,48.23
2022-12-20T13:43:48.097Z,48.90
2022-12-20T13:46:19.820Z,49.47
2022-12-20T13:48:46.736Z,51.27
2022-12-20T13:51:27.934Z,49.63
2022-12-20T13:54:00.668Z,48.93
2022-12-20T13:56:27.584Z,49.67
2022-12-20T13:59:04.326Z,51.27
2022-12-20T14:01:32.989Z,50.83
2022-12-20T14:04:07.205Z,51.33
2022-12-20T14:06:35.056Z,51.67
2022-12-20T14:09:03.383Z,50.93
2022-12-20T14:11:30.341Z,51.10
2022-12-20T14:13:58.497Z,51.37
2022-12-20T14:16:27.982Z,52.03
2022-12-20T14:18:58.125Z,51.53
2022-12-20T14:21:26.114Z,48.80
2022-12-20T14:23:56.704Z,49.67
2022-12-20T14:26:28.128Z,51.07
2022-12-20T14:28:57.461Z,51.60
2022-12-20T14:31:39.507Z,52.03
2022-12-20T14:34:12.080Z,51.27
2022-12-20T14:36:41.645Z,51.80
2022-12-20T14:39:27.919Z,51.10
2022-12-20T14:42:03.429Z,51.00
2022-12-20T14:44:31.764Z,53.47
2022-12-20T14:47:18.958Z,52.17
2022-12-20T14:49:54.274Z,52.50
2022-12-20T14:52:28.019Z,53.03
2022-12-20T14:55:11.153Z,52.07
2022-12-20T14:57:44.570Z,51.17
2022-12-20T15:00:28.849Z,50.27
2022-12-20T15:03:22.997Z,49.57
2022-12-20T15:05:56.679Z,49.90
2022-12-20T15:08:28.508Z,49.97
2022-12-20T15:11:03.973Z,51.83
2022-12-20T15:13:44.227Z,50.40
2022-12-20T15:16:18.542Z,52.47
2022-12-20T15:18:59.461Z,51.63
2022-12-20T15:21:35.738Z,52.00
2022-12-20T15:24:08.199Z,50.23
2022-12-20T15:26:36.579Z,49.63
2022-12-20T15:29:04.439Z,52.43
2022-12-20T15:31:34.973Z,50.90
2022-12-20T15:34:13.997Z,53.10
2022-12-20T15:36:41.352Z,50.13
2022-12-20T15:39:13.364Z,50.13
2022-12-20T15:41:44.642Z,52.17
2022-12-20T15:44:32.328Z,50.50
2022-12-20T15:46:59.452Z,50.40
2022-12-20T15:49:30.536Z,52.53
2022-12-20T15:51:58.316Z,51.60
2022-12-20T15:54:31.683Z,52.80
2022-12-20T15:57:04.589Z,52.73
2022-12-20T16:02:25.281Z,54.00
2022-12-20T16:04:53.561Z,52.47
2022-12-20T16:07:20.879Z,54.13
2022-12-20T16:09:48.011Z,52.80
2022-12-20T16:12:28.187Z,53.60
2022-12-20T16:14:56.993Z,52.57
2022-12-20T16:17:24.611Z,50.50
2022-12-20T16:19:51.686Z,48.37
2022-12-20T16:22:23.181Z,50.53
2022-12-20T16:24:50.700Z,49.47
2022-12-20T16:27:17.767Z,49.20
2022-12-20T16:29:45.575Z,48.63
2022-12-20T16:32:16.381Z,48.87
2022-12-20T16:34:44.094Z,48.37
2022-12-20T16:37:14.320Z,50.77
2022-12-20T16:39:42.117Z,48.60
2022-12-20T16:42:17.544Z,49.47
2022-12-20T16:44:45.773Z,51.60
2022-12-20T16:47:14.356Z,49.57
2022-12-20T16:49:51.147Z,47.77
2022-12-20T16:52:19.718Z,47.10
2022-12-20T16:54:47.065Z,49.40
2022-12-20T16:57:14.079Z,48.83
2022-12-20T16:59:41.004Z,48.10
2022-12-20T17:02:38.186Z,47.60
2022-12-20T17:05:05.699Z,47.63
2022-12-20T17:07:37.979Z,46.87
2022-12-20T17:10:10.235Z,47.70
2022-12-20T17:12:37.250Z,50.17
2022-12-20T17:15:04.965Z,46.80
2022-12-20T17:17:31.977Z,46.13
2022-12-20T17:19:59.426Z,48.43
2022-12-20T17:22:26.625Z,48.43
2022-12-20T17:24:53.807Z,47.03
2022-12-20T17:27:20.976Z,47.67
2022-12-20T17:29:48.496Z,46.60
2022-12-20T17:32:24.636Z,46.27
2022-12-20T17:34:53.296Z,47.03
2022-12-20T17:37:21.600Z,46.33
2022-12-20T17:39:49.001Z,46.27
2022-12-20T17:42:16.849Z,45.90
2022-12-20T17:44:44.162Z,46.10
2022-12-20T17:47:11.822Z,47.37
2022-12-20T17:49:39.115Z,46.00
2022-12-20T17:52:06.338Z,44.23
2022-12-20T17:54:39.424Z,47.37
2022-12-20T17:57:13.733Z,46.83
2022-12-20T17:59:40.688Z,45.97
2022-12-20T18:02:27.414Z,45.70
2022-12-20T18:04:54.567Z,46.77
2022-12-20T18:07:21.519Z,46.17
2022-12-20T18:09:48.862Z,46.40
2022-12-20T18:12:16.590Z,48.60
2022-12-20T18:14:43.611Z,45.20
2022-12-20T18:17:11.241Z,45.10
2022-12-20T18:19:38.513Z,45.80
2022-12-20T18:22:06.550Z,48.17
2022-12-20T18:24:33.715Z,48.30
2022-12-20T18:27:00.662Z,46.03
2022-12-20T18:29:28.581Z,47.13
2022-12-20T18:31:55.664Z,46.03
2022-12-20T18:34:23.189Z,46.73
2022-12-20T18:36:50.173Z,47.13
2022-12-20T18:39:17.198Z,48.67
2022-12-20T18:41:44.689Z,46.40
2022-12-20T18:44:12.061Z,47.20
2022-12-20T18:46:39.546Z,46.40
2022-12-20T18:49:06.745Z,45.87
2022-12-20T18:51:38.804Z,46.60
2022-12-20T18:54:07.985Z,47.90
2022-12-20T18:56:37.175Z,48.63
2022-12-20T18:59:10.786Z,49.67
2022-12-20T19:01:39.065Z,47.63
2022-12-20T19:04:07.550Z,48.47
2022-12-20T19:06:35.488Z,47.57
2022-12-20T19:09:06.924Z,50.17
2022-12-20T19:11:34.089Z,49.00
2022-12-20T19:14:01.156Z,47.63
2022-12-20T19:16:32.051Z,46.97
2022-12-20T19:19:00.891Z,46.90
2022-12-20T19:21:33.417Z,47.27
2022-12-20T19:24:05.049Z,47.30
2022-12-20T19:26:32.846Z,47.53
2022-12-20T19:29:00.199Z,47.57
2022-12-20T19:31:29.979Z,46.17
2022-12-20T19:33:59.688Z,45.90
2022-12-20T19:36:46.647Z,48.77
2022-12-20T19:39:22.302Z,48.43
2022-12-20T19:42:21.737Z,46.93
2022-12-20T19:44:37.418Z,47.57
2022-12-20T19:47:04.401Z,49.23
2022-12-20T19:49:31.406Z,47.50
2022-12-20T19:51:58.833Z,47.57
2022-12-20T19:54:25.900Z,48.93
2022-12-20T19:56:52.846Z,48.77
2022-12-20T19:59:21.107Z,48.00
2022-12-20T20:01:48.264Z,45.80
2022-12-20T20:04:15.804Z,47.20
2022-12-20T20:06:42.901Z,47.23
2022-12-20T20:09:11.476Z,48.27
2022-12-20T20:11:38.503Z,46.67
2022-12-20T20:14:09.406Z,47.27
2022-12-20T20:16:37.458Z,46.57
2022-12-20T20:19:05.679Z,46.80
2022-12-20T20:21:35.061Z,46.57
2022-12-20T20:24:02.204Z,48.00
2022-12-20T20:26:31.660Z,46.83
2022-12-20T20:29:00.527Z,46.10
2022-12-20T20:31:27.587Z,44.97
2022-12-20T20:33:54.754Z,47.33
2022-12-20T20:36:23.382Z,43.60
2022-12-20T20:38:52.407Z,43.57
2022-12-20T20:41:19.964Z,43.73
2022-12-20T20:43:47.050Z,45.43
2022-12-20T20:46:15.709Z,44.00
2022-12-20T20:48:43.839Z,44.77
2022-12-20T20:51:11.614Z,47.67
2022-12-20T20:53:39.471Z,44.17
2022-12-20T20:56:07.767Z,46.23
2022-12-20T20:58:35.389Z,46.33
2022-12-20T21:01:04.008Z,45.90
2022-12-20T21:03:32.178Z,45.60
2022-12-20T21:06:36.545Z,45.17
2022-12-20T21:08:46.348Z,44.13
2022-12-20T21:11:13.555Z,44.63
2022-12-20T21:13:40.873Z,46.20
2022-12-20T21:16:12.777Z,47.77
2022-12-20T21:18:40.223Z,45.57
2022-12-20T21:21:11.969Z,44.83
2022-12-20T21:23:43.194Z,46.00
2022-12-20T21:26:10.190Z,46.50
2022-12-20T21:28:37.299Z,46.17
2022-12-20T21:31:09.156Z,46.70
2022-12-20T21:33:36.453Z,46.13
2022-12-20T21:36:06.360Z,46.87
2022-12-20T21:38:33.915Z,46.30
2022-12-20T21:41:00.989Z,46.27
2022-12-20T21:43:28.732Z,47.30
2022-12-20T21:45:56.229Z,46.30
2022-12-20T21:48:24.186Z,46.97
2022-12-20T21:51:05.162Z,46.40
2022-12-20T21:53:32.950Z,49.60
2022-12-20T21:56:01.238Z,46.80
2022-12-20T21:58:30.286Z,47.23
2022-12-20T22:00:58.146Z,47.00
2022-12-20T22:03:26.133Z,48.43
2022-12-20T22:05:55.810Z,47.53
2022-12-20T22:08:25.035Z,49.00
2022-12-20T22:11:15.337Z,47.50
2022-12-20T22:13:42.972Z,48.17
2022-12-20T22:16:14.178Z,45.67
2022-12-20T22:18:42.231Z,46.60
2022-12-20T22:21:11.882Z,49.03
2022-12-20T22:23:39.216Z,46.73
2022-12-20T22:26:15.735Z,48.10
2022-12-20T22:28:52.268Z,47.63
2022-12-20T22:31:19.910Z,48.13
2022-12-20T22:33:47.832Z,47.87
2022-12-20T22:36:16.108Z,48.03
2022-12-20T22:38:46.203Z,47.10
2022-12-20T22:41:18.776Z,47.40
2022-12-20T22:43:46.531Z,46.13
2022-12-20T22:46:15.453Z,46.57
2022-12-20T22:48:43.490Z,46.40
2022-12-20T22:51:17.420Z,45.97
2022-12-20T22:53:44.955Z,46.63
2022-12-20T22:56:12.068Z,48.13
2022-12-20T22:58:39.667Z,46.23
2022-12-20T23:01:08.750Z,47.93
2022-12-20T23:03:37.239Z,48.63
2022-12-20T23:06:06.405Z,48.43
2022-12-20T23:08:35.844Z,47.53
2022-12-20T23:11:21.707Z,46.83
2022-12-20T23:14:07.244Z,46.30
2022-12-20T23:16:34.237Z,46.00
2022-12-20T23:19:02.240Z,48.73
2022-12-20T23:21:48.351Z,46.10
2022-12-20T23:24:16.029Z,47.07
2022-12-20T23:26:43.518Z,45.80
2022-12-20T23:29:11.756Z,46.13
2022-12-20T23:31:39.154Z,47.50
2022-12-20T23:34:07.325Z,46.27
2022-12-20T23:36:34.439Z,46.80
2022-12-20T23:39:02.112Z,46.43
2022-12-20T23:41:29.440Z,50.37
2022-12-20T23:43:56.571Z,46.50
2022-12-20T23:46:24.071Z,45.13
2022-12-20T23:48:52.314Z,45.10
2022-12-20T23:51:20.601Z,46.93
2022-12-20T23:53:47.721Z,44.43
2022-12-20T23:56:18.133Z,46.57
2022-12-20T23:58:46.274Z,46.10
